Time;durP1;ratioP1;P1;durP2;ratioP2;P2;SDS_P1;SDS_P2;PMS_P1;PMS_P2;Temp;Humidity;BMP_temperature;BMP_pressure;BME280_temperature;BME280_humidity;BME280_pressure;Samples;Min_cycle;Max_cycle;Signal;HPM_P1;HPM_P2
2021/08/20 00:02:42;;;;;;;5.53;3.88;;;;;;;;;;6177941;28;20026;-81
2021/08/20 00:05:43;;;;;;;6.95;3.47;;;17.00;99.90;;;;;;6177614;28;20027;-82
2021/08/20 00:08:43;;;;;;;6.60;3.55;;;17.30;99.90;;;;;;6177973;28;20364;-81
2021/08/20 00:11:44;;;;;;;4.70;3.50;;;17.00;99.90;;;;;;6177811;28;20544;-82
2021/08/20 00:14:45;;;;;;;6.35;3.55;;;17.00;99.90;;;;;;6177661;28;20030;-82
2021/08/20 00:17:45;;;;;;;5.95;3.50;;;17.10;99.90;;;;;;6160220;28;20038;-80
2021/08/20 00:20:46;;;;;;;3.83;3.42;;;17.10;99.90;;;;;;6177512;28;20034;-83
2021/08/20 00:23:47;;;;;;;4.65;3.10;;;17.10;99.90;;;;;;6177538;28;20027;-82
2021/08/20 00:26:47;;;;;;;4.90;3.70;;;17.10;99.90;;;;;;6159745;28;20022;-82
2021/08/20 00:29:48;;;;;;;6.63;4.32;;;17.10;99.90;;;;;;6159822;28;20108;-80
2021/08/20 00:32:49;;;;;;;6.10;3.80;;;17.00;99.90;;;;;;6176717;28;20023;-81
2021/08/20 00:35:49;;;;;;;3.90;3.20;;;17.10;99.90;;;;;;6176997;28;20053;-81
2021/08/20 00:38:50;;;;;;;6.88;4.13;;;16.90;99.90;;;;;;6176607;28;20489;-80
2021/08/20 00:41:50;;;;;;;5.03;3.65;;;17.10;99.90;;;;;;6159709;28;20477;-85
2021/08/20 00:44:52;;;;;;;4.57;3.88;;;;;;;;;;6176942;28;20373;-82
2021/08/20 00:47:53;;;;;;;3.80;3.10;;;;;;;;;;6176708;28;20026;-81
2021/08/20 00:51:04;;;;;;;4.53;3.40;;;17.00;99.90;;;;;;6177020;28;20023;-80
2021/08/20 00:54:08;;;;;;;3.80;3.17;;;17.20;99.90;;;;;;6159472;28;20106;-80
2021/08/20 00:57:09;;;;;;;4.43;3.60;;;16.90;99.90;;;;;;6159846;28;20120;-80
2021/08/20 01:00:10;;;;;;;3.63;3.22;;;16.90;99.90;;;;;;6159329;28;20030;-81
2021/08/20 01:03:10;;;;;;;4.55;3.40;;;16.90;99.90;;;;;;6143082;28;20046;-82
2021/08/20 01:06:11;;;;;;;5.78;3.75;;;16.90;99.90;;;;;;6176503;28;20018;-83
2021/08/20 01:09:11;;;;;;;6.03;3.33;;;16.90;99.90;;;;;;6159223;28;20038;-83
2021/08/20 01:12:12;;;;;;;4.28;3.42;;;16.90;99.90;;;;;;6142211;28;20015;-81
2021/08/20 01:15:12;;;;;;;3.50;3.20;;;16.80;99.90;;;;;;6143040;28;20023;-80
2021/08/20 01:18:27;;;;;;;4.97;3.58;;;17.40;99.90;;;;;;6176636;28;20038;-80
2021/08/20 01:21:28;;;;;;;5.95;3.10;;;17.00;99.90;;;;;;6158634;28;20026;-82
2021/08/20 01:24:29;;;;;;;4.45;3.85;;;16.90;99.90;;;;;;6158897;28;20039;-80
2021/08/20 01:27:32;;;;;;;5.78;3.50;;;16.80;99.90;;;;;;6175722;28;20023;-83
2021/08/20 01:30:33;;;;;;;3.92;3.30;;;16.80;99.90;;;;;;6158659;28;20461;-80
2021/08/20 01:33:33;;;;;;;4.95;3.55;;;16.80;99.90;;;;;;6158550;28;20058;-80
2021/08/20 01:36:34;;;;;;;5.95;3.30;;;16.80;99.90;;;;;;6175500;28;20408;-80
2021/08/20 01:39:35;;;;;;;5.80;3.50;;;16.80;99.90;;;;;;6175830;28;20042;-79
2021/08/20 01:42:35;;;;;;;4.35;3.53;;;17.00;99.90;;;;;;6175554;28;20030;-82
2021/08/20 01:45:36;;;;;;;6.30;3.63;;;16.70;99.90;;;;;;6158021;28;20027;-80
2021/08/20 01:48:48;;;;;;;3.97;3.55;;;16.70;99.90;;;;;;6175528;28;20101;-82
2021/08/20 01:51:48;;;;;;;4.40;3.60;;;16.70;99.90;;;;;;6175363;28;20533;-79
2021/08/20 01:54:49;;;;;;;5.32;3.13;;;16.70;99.90;;;;;;6175067;28;20054;-79
2021/08/20 01:57:50;;;;;;;3.88;3.47;;;16.70;99.90;;;;;;6175188;28;20365;-80
2021/08/20 02:00:50;;;;;;;4.18;3.25;;;16.80;99.90;;;;;;6158044;28;20049;-82
2021/08/20 02:03:51;;;;;;;9.25;3.45;;;16.60;99.90;;;;;;6157995;28;20022;-80
2021/08/20 02:06:52;;;;;;;5.53;3.45;;;16.60;99.90;;;;;;6158098;28;20023;-80
2021/08/20 02:09:52;;;;;;;4.75;3.38;;;16.50;99.90;;;;;;6175203;28;20027;-79
2021/08/20 02:12:53;;;;;;;4.28;3.50;;;16.40;99.90;;;;;;6174812;28;20027;-83
2021/08/20 02:15:53;;;;;;;4.30;3.42;;;16.40;99.90;;;;;;6142151;28;20348;-83
2021/08/20 02:18:54;;;;;;;4.25;3.22;;;16.30;99.90;;;;;;6157725;28;20107;-80
2021/08/20 02:21:55;;;;;;;4.88;3.33;;;16.40;99.90;;;;;;6174712;28;20461;-81
2021/08/20 02:24:56;;;;;;;7.30;3.78;;;16.30;99.90;;;;;;6174957;28;20023;-80
2021/08/20 02:27:57;;;;;;;3.85;3.28;;;16.50;99.90;;;;;;6174775;28;20019;-83
2021/08/20 02:30:57;;;;;;;3.80;3.40;;;16.20;99.90;;;;;;6157331;28;20033;-80
2021/08/20 02:33:58;;;;;;;4.63;3.33;;;16.40;99.90;;;;;;6157391;28;20035;-83
2021/08/20 02:36:58;;;;;;;6.18;3.63;;;16.20;99.90;;;;;;6174439;28;20078;-81
2021/08/20 02:39:59;;;;;;;4.13;3.38;;;16.20;99.90;;;;;;6174462;28;20027;-80
2021/08/20 02:42:59;;;;;;;4.63;3.33;;;16.10;99.90;;;;;;6174451;28;20022;-80
2021/08/20 02:46:00;;;;;;;4.03;3.50;;;16.10;99.90;;;;;;6157416;28;20051;-80
2021/08/20 02:49:01;;;;;;;4.95;3.58;;;16.20;99.90;;;;;;6174447;28;20027;-83
2021/08/20 02:52:01;;;;;;;3.50;3.20;;;16.00;99.90;;;;;;6174678;28;20037;-83
2021/08/20 02:55:02;;;;;;;4.38;3.67;;;16.10;99.90;;;;;;6174374;28;20026;-80
2021/08/20 02:58:05;;;;;;;6.30;3.60;;;;;;;;;;6174590;28;20031;-80
2021/08/20 03:01:05;;;;;;;3.80;3.40;;;16.10;99.90;;;;;;6174292;28;20019;-79
2021/08/20 03:04:06;;;;;;;4.32;3.58;;;;;;;;;;6157426;28;20065;-83
2021/08/20 03:07:07;;;;;;;5.95;3.42;;;;;;;;;;6174550;28;20106;-80
2021/08/20 03:10:09;;;;;;;5.15;3.40;;;16.00;99.90;;;;;;6157160;28;20111;-83
2021/08/20 03:13:10;;;;;;;4.68;3.72;;;;;;;;;;6174307;28;20035;-80
2021/08/20 03:16:10;;;;;;;3.60;3.28;;;15.90;99.90;;;;;;6174130;28;20022;-83
2021/08/20 03:19:11;;;;;;;5.22;3.90;;;;;;;;;;6174059;28;20042;-79
2021/08/20 03:22:12;;;;;;;4.00;3.20;;;15.70;99.90;;;;;;6174318;28;20058;-80
2021/08/20 03:25:13;;;;;;;4.47;3.42;;;;;;;;;;6174215;28;20376;-80
2021/08/20 03:28:14;;;;;;;3.53;3.22;;;15.70;99.90;;;;;;6174093;28;20022;-83
2021/08/20 03:31:14;;;;;;;3.97;3.42;;;15.80;99.90;;;;;;6174308;28;20027;-83
2021/08/20 03:34:15;;;;;;;5.90;2.95;;;15.80;99.90;;;;;;6174218;28;20121;-80
2021/08/20 03:37:15;;;;;;;5.07;3.30;;;15.80;99.90;;;;;;6177698;28;20058;-85
2021/08/20 03:40:16;;;;;;;4.63;3.63;;;15.80;99.90;;;;;;6161234;28;20102;-83
2021/08/20 03:43:16;;;;;;;4.47;3.60;;;15.70;99.90;;;;;;6178392;28;20412;-80
2021/08/20 03:46:17;;;;;;;4.28;3.65;;;15.50;99.90;;;;;;6161059;28;20031;-81
2021/08/20 03:49:18;;;;;;;4.97;3.80;;;;;;;;;;6160930;28;20029;-83
2021/08/20 03:52:19;;;;;;;6.80;4.53;;;15.50;99.90;;;;;;6178133;28;20153;-82
2021/08/20 03:55:19;;;;;;;5.95;4.07;;;15.60;99.90;;;;;;6177862;28;20027;-83
2021/08/20 03:58:20;;;;;;;4.10;3.50;;;;;;;;;;6177691;28;20373;-84
2021/08/20 04:01:21;;;;;;;5.25;3.47;;;15.40;99.90;;;;;;6177682;28;20413;-83
2021/08/20 04:04:21;;;;;;;4.40;3.30;;;15.60;99.90;;;;;;6160857;28;20027;-80
2021/08/20 04:07:22;;;;;;;3.38;3.08;;;15.40;99.90;;;;;;6160940;28;20346;-80
2021/08/20 04:10:23;;;;;;;5.00;4.00;;;15.60;99.90;;;;;;6177772;28;20062;-81
2021/08/20 04:13:24;;;;;;;6.95;3.92;;;;;;;;;;6160723;28;20414;-79
2021/08/20 04:16:24;;;;;;;7.35;3.63;;;15.40;99.90;;;;;;6177759;28;20107;-80
2021/08/20 04:19:25;;;;;;;6.82;3.78;;;15.30;99.90;;;;;;6160065;28;20086;-81
2021/08/20 04:22:25;;;;;;;6.00;3.70;;;15.30;99.90;;;;;;6177555;28;20037;-82
2021/08/20 04:25:27;;;;;;;5.70;4.13;;;15.30;99.90;;;;;;6177498;28;20465;-83
2021/08/20 04:28:27;;;;;;;5.37;4.07;;;15.30;99.90;;;;;;6160113;28;20054;-80
2021/08/20 04:31:28;;;;;;;4.35;3.60;;;;;;;;;;6160267;28;20362;-80
2021/08/20 04:34:29;;;;;;;5.70;4.00;;;;;;;;;;6176990;28;20018;-80
2021/08/20 04:37:30;;;;;;;5.20;3.67;;;14.90;99.90;;;;;;6176846;28;20043;-84
2021/08/20 04:40:30;;;;;;;5.22;3.63;;;15.10;99.90;;;;;;6176985;28;20346;-80
2021/08/20 04:43:31;;;;;;;4.15;3.50;;;15.00;99.90;;;;;;6159699;28;20023;-84
2021/08/20 04:46:32;;;;;;;6.35;3.95;;;15.10;99.90;;;;;;6175716;28;20023;-80
2021/08/20 04:49:32;;;;;;;7.00;3.67;;;15.20;99.90;;;;;;6177115;28;20449;-84
2021/08/20 04:52:34;;;;;;;4.57;3.80;;;15.20;99.90;;;;;;6177092;28;20352;-83
2021/08/20 04:55:34;;;;;;;5.80;3.55;;;15.10;99.90;;;;;;6176496;28;20026;-84
2021/08/20 04:58:35;;;;;;;5.53;3.85;;;15.40;99.90;;;;;;6176459;28;20097;-79
2021/08/20 05:01:36;;;;;;;7.60;3.88;;;15.60;99.90;;;;;;6176403;28;20041;-80
2021/08/20 05:04:37;;;;;;;4.45;3.55;;;15.40;99.90;;;;;;6159167;28;20033;-81
2021/08/20 05:07:37;;;;;;;4.15;3.40;;;15.40;99.90;;;;;;6159030;28;20022;-81
2021/08/20 05:10:38;;;;;;;7.57;3.40;;;15.70;99.90;;;;;;6142770;28;20507;-82
2021/08/20 05:13:39;;;;;;;5.82;3.83;;;15.60;99.90;;;;;;6158910;28;20101;-82
2021/08/20 05:16:39;;;;;;;4.38;3.70;;;15.40;99.90;;;;;;6159304;28;20022;-81
2021/08/20 05:19:40;;;;;;;4.93;3.70;;;15.30;99.90;;;;;;6176015;28;20382;-84
2021/08/20 05:22:45;;;;;;;4.38;3.70;;;15.70;99.90;;;;;;6175803;28;20030;-84
2021/08/20 05:25:46;;;;;;;6.72;4.78;;;;;;;;;;6158698;28;20023;-80
2021/08/20 05:28:47;;;;;;;5.25;4.55;;;;;;;;;;6176025;28;20031;-84
2021/08/20 05:31:47;;;;;;;4.80;3.70;;;16.00;99.90;;;;;;6175920;28;20030;-80
2021/08/20 05:34:48;;;;;;;4.43;3.63;;;;;;;;;;6158297;28;20022;-83
2021/08/20 05:37:49;;;;;;;5.07;3.70;;;15.90;99.90;;;;;;6175272;28;20046;-83
2021/08/20 05:40:49;;;;;;;4.70;3.95;;;16.20;99.90;;;;;;6175636;28;20476;-82
2021/08/20 05:43:50;;;;;;;4.55;3.42;;;16.00;99.90;;;;;;6157919;28;20030;-80
2021/08/20 05:46:51;;;;;;;7.43;4.00;;;16.20;99.90;;;;;;6175665;28;20357;-83
2021/08/20 05:49:51;;;;;;;5.03;3.83;;;16.30;99.90;;;;;;6175225;28;20027;-81
2021/08/20 05:52:52;;;;;;;8.18;3.75;;;16.40;99.90;;;;;;6175083;28;20019;-82
2021/08/20 05:55:52;;;;;;;4.50;3.45;;;16.50;99.90;;;;;;6175236;28;20484;-82
2021/08/20 05:58:53;;;;;;;4.22;3.22;;;16.60;99.90;;;;;;6157759;28;20043;-82
2021/08/20 06:01:54;;;;;;;4.68;3.85;;;16.70;99.90;;;;;;6157676;28;20141;-80
2021/08/20 06:04:55;;;;;;;10.60;4.22;;;;;;;;;;6142091;28;20015;-82
2021/08/20 06:07:55;;;;;;;4.53;3.50;;;16.90;99.90;;;;;;6158049;28;20037;-81
2021/08/20 06:10:56;;;;;;;3.78;3.38;;;17.30;99.90;;;;;;6175029;28;20023;-84
2021/08/20 06:13:56;;;;;;;4.38;3.50;;;17.20;99.90;;;;;;6175815;28;20019;-79
2021/08/20 06:16:57;;;;;;;5.07;3.67;;;17.80;99.90;;;;;;6175196;28;20030;-84
2021/08/20 06:19:58;;;;;;;4.75;3.63;;;18.20;99.90;;;;;;6157850;28;20110;-79
2021/08/20 06:22:58;;;;;;;4.82;3.40;;;18.20;99.90;;;;;;6175060;28;20356;-83
2021/08/20 06:25:59;;;;;;;7.45;4.15;;;18.00;99.90;;;;;;6175006;28;20023;-81
2021/08/20 06:28:59;;;;;;;4.90;4.28;;;18.00;99.90;;;;;;6174786;28;20031;-81
2021/08/20 06:32:00;;;;;;;7.25;4.03;;;18.10;99.90;;;;;;6157605;28;20033;-81
2021/08/20 06:35:01;;;;;;;5.22;3.92;;;18.00;99.90;;;;;;6174741;28;20019;-80
2021/08/20 06:38:01;;;;;;;4.60;3.85;;;18.10;99.90;;;;;;6149321;29;20066;-81
2021/08/20 06:41:02;;;;;;;4.72;3.40;;;18.40;99.90;;;;;;6133291;29;20461;-85
2021/08/20 06:44:03;;;;;;;4.78;3.72;;;18.40;99.90;;;;;;6149943;29;20027;-81
2021/08/20 06:47:03;;;;;;;4.40;3.80;;;18.50;99.90;;;;;;6150870;29;20114;-81
2021/08/20 06:50:05;;;;;;;4.07;3.67;;;18.70;99.90;;;;;;6150377;29;20114;-81
2021/08/20 06:53:06;;;;;;;4.67;4.13;;;;;;;;;;6149612;29;20466;-85
2021/08/20 06:56:06;;;;;;;7.93;4.10;;;19.20;99.90;;;;;;6150360;29;20031;-80
2021/08/20 06:59:07;;;;;;;5.10;3.95;;;19.40;99.90;;;;;;6133281;29;20039;-80
2021/08/20 07:02:08;;;;;;;4.75;3.90;;;19.40;99.90;;;;;;6150519;29;20028;-83
2021/08/20 07:05:11;;;;;;;6.47;3.78;;;19.50;99.90;;;;;;6149109;29;20046;-82
2021/08/20 07:08:12;;;;;;;4.05;3.35;;;19.90;99.90;;;;;;6150591;28;20027;-81
2021/08/20 07:11:13;;;;;;;3.97;3.40;;;19.70;99.90;;;;;;6151705;28;20028;-81
2021/08/20 07:14:13;;;;;;;4.35;3.30;;;19.70;99.90;;;;;;6154202;29;20035;-82
2021/08/20 07:17:14;;;;;;;4.03;3.63;;;19.70;99.90;;;;;;6153412;28;20038;-81
2021/08/20 07:20:14;;;;;;;5.30;3.58;;;19.80;99.90;;;;;;6155148;29;20094;-80
2021/08/20 07:23:15;;;;;;;4.47;3.00;;;20.30;99.90;;;;;;6154572;28;20489;-80
2021/08/20 07:26:19;;;;;;;6.18;3.90;;;20.60;99.90;;;;;;6154522;29;20031;-80
2021/08/20 07:29:19;;;;;;;4.57;3.47;;;20.30;99.90;;;;;;6153626;29;20030;-81
2021/08/20 07:32:20;;;;;;;4.70;3.40;;;20.50;99.90;;;;;;6153426;28;20454;-81
2021/08/20 07:35:20;;;;;;;4.68;3.25;;;20.60;99.90;;;;;;6154682;28;20417;-80
2021/08/20 07:38:21;;;;;;;4.30;3.40;;;21.40;99.90;;;;;;6170059;28;20053;-80
2021/08/20 07:41:22;;;;;;;4.75;3.30;;;21.50;99.90;;;;;;6161366;28;20106;-80
2021/08/20 07:44:22;;;;;;;4.57;3.38;;;21.70;99.90;;;;;;6178059;28;20508;-79
2021/08/20 07:47:23;;;;;;;4.03;3.30;;;21.80;99.90;;;;;;6178224;28;20026;-80
2021/08/20 07:50:23;;;;;;;3.78;3.45;;;22.00;99.90;;;;;;6178240;28;20360;-83
2021/08/20 07:53:24;;;;;;;4.25;3.25;;;23.10;99.90;;;;;;6177859;28;20022;-80
2021/08/20 07:56:25;;;;;;;3.63;3.08;;;23.10;99.90;;;;;;6144447;28;20295;-81
2021/08/20 07:59:26;;;;;;;3.47;3.10;;;23.30;98.30;;;;;;6177655;28;20073;-81
2021/08/20 08:02:27;;;;;;;4.63;2.80;;;23.50;97.90;;;;;;6144542;28;20372;-80
2021/08/20 08:05:27;;;;;;;4.10;3.38;;;23.50;96.10;;;;;;6160947;28;20026;-80
2021/08/20 08:08:28;;;;;;;3.55;2.90;;;23.50;97.00;;;;;;6160497;28;20027;-79
2021/08/20 08:11:31;;;;;;;4.10;3.10;;;23.50;97.30;;;;;;6160274;28;20027;-81
2021/08/20 08:14:32;;;;;;;4.60;3.03;;;23.70;97.70;;;;;;6160550;28;20181;-82
2021/08/20 08:17:33;;;;;;;3.50;3.05;;;23.80;99.90;;;;;;6160464;28;20031;-80
2021/08/20 08:20:34;;;;;;;3.63;3.03;;;23.80;96.50;;;;;;6144117;28;20346;-80
2021/08/20 08:23:35;;;;;;;2.83;2.63;;;;;;;;;;6160015;28;20039;-82
2021/08/20 08:26:35;;;;;;;2.97;2.67;;;24.50;95.60;;;;;;6160346;28;20483;-82
2021/08/20 08:29:36;;;;;;;4.30;2.85;;;24.70;95.50;;;;;;6160527;28;20031;-80
2021/08/20 08:32:37;;;;;;;3.43;3.00;;;24.80;94.10;;;;;;6159614;28;20445;-80
2021/08/20 08:35:37;;;;;;;7.85;3.00;;;25.30;94.20;;;;;;6143786;28;20346;-80
2021/08/20 08:38:38;;;;;;;3.97;3.00;;;25.40;93.60;;;;;;6176768;28;20054;-79
2021/08/20 08:41:53;;;;;;;3.87;3.10;;;25.70;93.50;;;;;;6179057;28;20027;-78
2021/08/20 08:44:55;;;;;;;3.25;2.95;;;26.00;92.10;;;;;;6161553;28;20479;-81
2021/08/20 08:47:56;;;;;;;3.83;3.13;;;26.80;92.70;;;;;;6159845;28;20043;-81
2021/08/20 08:50:57;;;;;;;4.23;3.43;;;27.80;98.70;;;;;;6159512;28;20078;-84
2021/08/20 08:53:58;;;;;;;5.63;2.80;;;28.00;96.90;;;;;;6159580;28;20030;-82
2021/08/20 08:56:59;;;;;;;3.97;3.37;;;28.80;99.90;;;;;;6159072;28;20042;-80
2021/08/20 08:59:59;;;;;;;4.70;3.00;;;29.30;99.90;;;;;;6176907;28;20034;-80
2021/08/20 09:03:00;;;;;;;5.43;3.00;;;29.50;97.60;;;;;;6176731;28;20027;-81
2021/08/20 09:06:00;;;;;;;3.53;2.77;;;29.60;99.30;;;;;;6176555;28;20066;-83
2021/08/20 09:09:31;;;;;;;3.23;2.90;;;30.00;98.30;;;;;;6158989;28;20050;-82
2021/08/20 09:12:32;;;;;;;3.72;3.00;;;29.80;80.60;;;;;;6173317;28;20118;-83
2021/08/20 09:15:33;;;;;;;6.63;3.40;;;30.00;80.30;;;;;;6158813;28;20073;-84
2021/08/20 09:18:33;;;;;;;3.35;3.03;;;30.20;97.10;;;;;;6175979;28;20042;-82
2021/08/20 09:21:34;;;;;;;3.77;3.13;;;30.60;95.70;;;;;;6159019;28;20035;-82
2021/08/20 09:24:42;;;;;;;4.10;3.23;;;30.40;77.90;;;;;;6176235;28;20019;-81
2021/08/20 09:27:42;;;;;;;5.93;3.67;;;30.40;96.30;;;;;;6159180;28;20026;-80
2021/08/20 09:30:59;;;;;;;6.20;3.43;;;30.60;95.20;;;;;;6175860;28;20034;-81
2021/08/20 09:34:02;;;;;;;5.93;3.50;;;30.50;94.80;;;;;;6160050;28;20030;-84
2021/08/20 09:37:12;;;;;;;4.65;3.65;;;30.40;83.10;;;;;;6175434;28;20153;-80
2021/08/20 09:40:15;;;;;;;4.28;3.40;;;30.70;74.80;;;;;;6158599;28;20023;-84
2021/08/20 09:43:23;;;;;;;6.30;3.63;;;30.70;93.60;;;;;;6175392;28;20050;-81
2021/08/20 09:46:24;;;;;;;3.33;3.03;;;30.60;93.40;;;;;;6175526;28;20026;-81
2021/08/20 09:49:24;;;;;;;4.10;3.50;;;30.70;81.20;;;;;;6158127;28;20034;-83
2021/08/20 09:52:29;;;;;;;3.53;3.23;;;30.90;72.40;;;;;;6175765;28;20034;-81
2021/08/20 09:55:37;;;;;;;4.88;3.58;;;31.30;72.80;;;;;;6141821;28;20029;-80
2021/08/20 09:58:37;;;;;;;3.60;3.30;;;31.10;70.60;;;;;;6175221;28;20468;-83
2021/08/20 10:01:40;;;;;;;4.20;3.47;;;31.30;70.60;;;;;;6141746;28;20027;-80
2021/08/20 10:04:41;;;;;;;3.63;3.33;;;31.20;71.50;;;;;;6175319;28;20105;-81
2021/08/20 10:07:41;;;;;;;4.53;3.33;;;31.20;69.40;;;;;;6158095;28;20041;-82
2021/08/20 10:10:44;;;;;;;3.77;3.33;;;31.20;69.70;;;;;;6175130;28;20251;-82
2021/08/20 10:13:45;;;;;;;3.88;3.58;;;31.20;70.40;;;;;;6157724;28;20019;-84
2021/08/20 10:16:46;;;;;;;4.53;3.92;;;31.00;72.40;;;;;;6141529;28;20038;-81
2021/08/20 10:19:50;;;;;;;4.13;3.73;;;31.20;71.20;;;;;;6157632;28;20067;-82
2021/08/20 10:22:50;;;;;;;5.93;3.50;;;31.40;70.20;;;;;;6158156;28;20030;-82
2021/08/20 10:25:54;;;;;;;3.77;3.40;;;31.40;72.40;;;;;;6175677;28;20109;-81
2021/08/20 10:28:55;;;;;;;4.05;3.40;;;31.60;70.20;;;;;;6157766;28;20428;-81
2021/08/20 10:31:56;;;;;;;3.90;3.53;;;31.50;69.00;;;;;;6157662;28;20062;-82
2021/08/20 10:34:57;;;;;;;4.40;3.72;;;31.60;68.30;;;;;;6157418;28;20019;-80
2021/08/20 10:37:57;;;;;;;3.93;3.30;;;31.70;69.70;;;;;;6174355;28;20042;-80
2021/08/20 10:41:14;;;;;;;4.30;3.80;;;31.80;68.70;;;;;;6174940;28;20262;-82
2021/08/20 10:44:18;;;;;;;4.28;3.88;;;31.50;67.70;;;;;;6174825;28;20073;-83
2021/08/20 10:47:22;;;;;;;3.80;3.50;;;31.50;68.40;;;;;;6162031;28;20034;-80
2021/08/20 10:50:23;;;;;;;4.28;3.75;;;31.60;67.10;;;;;;6179742;28;20061;-80
2021/08/20 10:53:23;;;;;;;3.80;3.50;;;31.60;66.60;;;;;;6179374;28;20441;-80
2021/08/20 10:56:31;;;;;;;3.70;3.40;;;31.50;67.00;;;;;;6179167;28;20022;-79
2021/08/20 10:59:44;;;;;;;4.70;3.83;;;31.30;66.00;;;;;;6162058;28;20027;-81
2021/08/20 11:02:51;;;;;;;3.78;3.42;;;31.30;66.40;;;;;;6161576;28;20034;-82
2021/08/20 11:05:53;;;;;;;6.13;3.65;;;31.30;65.70;;;;;;6162355;28;20023;-79
2021/08/20 11:08:54;;;;;;;3.80;3.50;;;;;;;;;;6179142;28;20058;-81
2021/08/20 11:11:55;;;;;;;4.57;3.53;;;30.50;79.30;;;;;;6162003;28;20014;-81
2021/08/20 11:14:55;;;;;;;5.97;3.50;;;31.00;91.40;;;;;;6178828;28;20113;-83
2021/08/20 11:18:00;;;;;;;4.13;3.45;;;30.50;91.20;;;;;;6161346;28;20057;-81
2021/08/20 11:21:00;;;;;;;5.13;3.83;;;30.60;91.00;;;;;;6161407;28;20093;-82
2021/08/20 11:24:18;;;;;;;5.07;3.60;;;30.90;89.10;;;;;;6161405;28;20027;-83
2021/08/20 11:27:18;;;;;;;4.20;3.80;;;30.80;90.30;;;;;;6178443;28;20062;-82
2021/08/20 11:30:19;;;;;;;5.20;3.53;;;30.70;91.20;;;;;;6161441;28;20555;-84
2021/08/20 11:33:22;;;;;;;4.77;3.87;;;30.70;91.30;;;;;;6161482;28;20250;-82
2021/08/20 11:36:23;;;;;;;4.55;3.70;;;30.80;92.40;;;;;;6161592;28;20031;-79
2021/08/20 11:39:23;;;;;;;4.60;3.50;;;30.80;79.00;;;;;;6178068;28;20050;-83
2021/08/20 11:42:24;;;;;;;4.30;3.90;;;30.60;65.50;;;;;;6161453;28;20110;-81
2021/08/20 11:45:24;;;;;;;5.67;3.80;;;30.50;65.40;;;;;;6145329;28;20026;-80
2021/08/20 11:48:26;;;;;;;4.30;3.90;;;30.30;68.20;;;;;;6178498;28;20097;-83
2021/08/20 11:51:36;;;;;;;4.90;3.85;;;30.20;68.20;;;;;;6160841;28;20030;-80
2021/08/20 11:54:38;;;;;;;4.32;3.72;;;30.20;68.00;;;;;;6160440;28;20376;-83
2021/08/20 11:57:39;;;;;;;7.43;4.20;;;30.30;68.40;;;;;;6160260;28;20023;-85
2021/08/20 12:00:39;;;;;;;4.73;3.57;;;30.20;67.60;;;;;;6177690;28;20081;-82
2021/08/20 12:03:44;;;;;;;4.80;3.67;;;30.10;68.20;;;;;;6178011;28;20035;-78
2021/08/20 12:06:45;;;;;;;3.80;3.50;;;29.90;66.80;;;;;;6177751;28;20036;-78
2021/08/20 12:09:45;;;;;;;4.47;3.47;;;30.10;69.10;;;;;;6160575;28;20030;-81
2021/08/20 12:12:46;;;;;;;7.37;3.87;;;30.00;65.50;;;;;;6144533;28;20214;-83
2021/08/20 12:15:46;;;;;;;5.23;3.83;;;29.80;67.80;;;;;;6177849;28;20023;-82
2021/08/20 12:18:47;;;;;;;4.50;4.07;;;29.60;69.60;;;;;;6177621;28;20289;-79
2021/08/20 12:22:04;;;;;;;3.93;3.57;;;29.50;67.70;;;;;;6177215;28;20026;-82
2021/08/20 12:25:24;;;;;;;6.65;3.88;;;29.30;69.30;;;;;;6177368;28;20014;-80
2021/08/20 12:28:24;;;;;;;5.05;4.03;;;29.20;71.50;;;;;;6160113;28;20037;-79
2021/08/20 12:31:25;;;;;;;4.27;3.60;;;28.90;70.40;;;;;;6177405;28;20027;-81
2021/08/20 12:34:36;;;;;;;4.05;3.65;;;28.80;71.60;;;;;;6177277;28;20041;-81
2021/08/20 12:37:36;;;;;;;4.68;3.92;;;28.70;70.70;;;;;;6176683;28;20062;-80
2021/08/20 12:40:41;;;;;;;4.23;3.83;;;28.50;70.50;;;;;;6159813;28;20094;-81
2021/08/20 12:43:43;;;;;;;4.53;4.10;;;28.50;74.20;;;;;;6159683;28;20440;-79
2021/08/20 12:46:43;;;;;;;4.15;3.75;;;28.50;90.10;;;;;;6159984;28;20015;-81
2021/08/20 12:50:06;;;;;;;3.90;3.50;;;28.60;95.90;;;;;;6176860;28;20023;-82
2021/08/20 12:53:08;;;;;;;4.00;3.58;;;28.60;95.40;;;;;;6176713;28;20045;-79
2021/08/20 12:56:09;;;;;;;5.63;3.90;;;28.30;85.00;;;;;;6176968;28;20356;-81
2021/08/20 12:59:11;;;;;;;4.60;4.10;;;28.40;73.10;;;;;;6143370;28;20045;-82
2021/08/20 13:02:12;;;;;;;5.05;4.07;;;28.40;73.30;;;;;;6159314;28;20026;-80
2021/08/20 13:05:12;;;;;;;4.72;4.20;;;28.40;71.70;;;;;;6143437;28;20071;-81
2021/08/20 13:08:13;;;;;;;6.87;4.33;;;28.30;73.50;;;;;;6158400;28;20106;-82
2021/08/20 13:11:14;;;;;;;4.97;3.80;;;28.30;72.40;;;;;;6176259;28;20453;-82
2021/08/20 13:14:14;;;;;;;4.60;3.87;;;28.30;72.00;;;;;;6159228;28;20097;-80
2021/08/20 13:17:15;;;;;;;5.03;3.90;;;28.00;72.00;;;;;;6175982;28;20031;-80
2021/08/20 13:20:15;;;;;;;4.80;3.93;;;27.60;73.50;;;;;;6158680;28;20031;-80
2021/08/20 13:23:16;;;;;;;5.37;3.87;;;27.30;73.30;;;;;;6176465;28;20046;-81
2021/08/20 13:26:17;;;;;;;4.30;3.87;;;27.00;73.00;;;;;;6158862;28;20038;-80
2021/08/20 13:29:17;;;;;;;7.13;3.97;;;26.90;90.80;;;;;;6142771;28;20724;-79
2021/08/20 13:32:18;;;;;;;4.20;3.80;;;26.70;76.40;;;;;;6175579;28;20055;-82
2021/08/20 13:35:18;;;;;;;4.90;4.10;;;27.00;75.50;;;;;;6175665;28;20081;-82
2021/08/20 13:38:19;;;;;;;4.20;3.80;;;27.30;74.60;;;;;;6158010;28;20503;-81
2021/08/20 13:41:20;;;;;;;5.37;4.17;;;27.50;73.80;;;;;;6175496;28;20034;-80
2021/08/20 13:44:20;;;;;;;4.07;3.70;;;27.60;75.80;;;;;;6175439;28;20050;-80
2021/08/20 13:47:21;;;;;;;3.83;3.43;;;27.90;76.40;;;;;;6175652;28;20090;-81
2021/08/20 13:50:21;;;;;;;4.17;3.77;;;28.00;73.20;;;;;;6175525;28;20061;-81
2021/08/20 13:53:22;;;;;;;4.50;3.80;;;27.80;72.20;;;;;;6158215;28;20476;-82
2021/08/20 13:56:23;;;;;;;6.00;3.70;;;27.70;72.00;;;;;;6157973;28;20027;-79
2021/08/20 13:59:25;;;;;;;5.53;3.90;;;27.60;72.90;;;;;;6174982;28;20042;-80
2021/08/20 14:02:25;;;;;;;5.20;3.78;;;28.40;72.80;;;;;;6158262;28;20400;-79
2021/08/20 14:05:27;;;;;;;5.10;4.23;;;27.70;73.70;;;;;;6174994;28;20035;-81
2021/08/20 14:08:28;;;;;;;6.28;4.78;;;27.80;87.80;;;;;;6175765;28;20015;-80
2021/08/20 14:11:28;;;;;;;4.60;3.50;;;27.80;73.00;;;;;;6157979;28;20050;-81
2021/08/20 14:14:29;;;;;;;4.73;3.70;;;27.80;74.30;;;;;;6157812;28;20037;-81
2021/08/20 14:17:31;;;;;;;7.60;4.27;;;27.70;75.20;;;;;;6157543;28;20038;-80
2021/08/20 14:20:32;;;;;;;5.32;4.25;;;27.70;74.70;;;;;;6174450;28;20365;-80
2021/08/20 14:23:33;;;;;;;5.63;4.13;;;27.70;73.30;;;;;;6175124;28;20027;-81
2021/08/20 14:26:34;;;;;;;4.90;3.75;;;27.70;71.90;;;;;;6157826;28;20077;-80
2021/08/20 14:29:34;;;;;;;4.23;3.83;;;27.70;72.20;;;;;;6175802;28;20027;-79
2021/08/20 14:32:35;;;;;;;4.97;4.00;;;27.60;71.70;;;;;;6157319;28;20033;-81
2021/08/20 14:35:36;;;;;;;5.67;4.27;;;27.60;74.10;;;;;;6157553;28;20109;-81
2021/08/20 14:38:36;;;;;;;4.90;4.17;;;27.60;74.40;;;;;;6174309;28;20058;-81
2021/08/20 14:41:37;;;;;;;5.53;4.30;;;27.70;95.60;;;;;;6174566;28;20023;-80
2021/08/20 14:44:37;;;;;;;4.53;4.00;;;27.40;95.30;;;;;;6157545;28;20023;-79
2021/08/20 14:47:38;;;;;;;5.43;4.40;;;27.50;94.70;;;;;;6174439;28;20030;-79
2021/08/20 14:50:38;;;;;;;5.13;4.00;;;27.60;94.90;;;;;;6157224;28;20027;-80
2021/08/20 14:53:39;;;;;;;4.83;4.20;;;27.30;94.50;;;;;;6157293;28;20026;-81
2021/08/20 14:56:40;;;;;;;5.57;3.97;;;27.20;94.60;;;;;;6174794;28;20028;-80
2021/08/20 14:59:40;;;;;;;5.40;3.80;;;27.30;94.00;;;;;;6157499;28;20035;-80
2021/08/20 15:02:41;;;;;;;5.07;4.10;;;27.20;94.30;;;;;;6157118;28;20518;-79
2021/08/20 15:05:41;;;;;;;4.47;3.90;;;27.10;94.60;;;;;;6174569;28;20434;-78
2021/08/20 15:08:42;;;;;;;6.13;4.03;;;26.90;94.90;;;;;;6157187;28;20374;-81
2021/08/20 15:11:42;;;;;;;4.57;4.17;;;27.20;95.70;;;;;;6174114;28;20022;-81
2021/08/20 15:14:46;;;;;;;4.73;4.27;;;26.90;85.60;;;;;;6174562;28;20018;-78
2021/08/20 15:17:47;;;;;;;5.43;4.07;;;27.10;94.50;;;;;;6174361;28;20027;-79
2021/08/20 15:20:48;;;;;;;5.80;4.00;;;;;;;;;;6174098;28;20029;-80
2021/08/20 15:23:49;;;;;;;4.43;4.03;;;27.00;80.10;;;;;;6157039;28;20409;-80
2021/08/20 15:26:50;;;;;;;6.90;4.40;;;26.90;74.50;;;;;;6174004;28;20058;-80
2021/08/20 15:29:51;;;;;;;6.18;4.32;;;;;;;;;;6141009;28;20023;-79
2021/08/20 15:32:52;;;;;;;4.57;3.75;;;26.90;73.00;;;;;;6177362;28;20026;-81
2021/08/20 15:35:54;;;;;;;6.37;4.30;;;26.80;73.80;;;;;;6161838;28;20361;-81
2021/08/20 15:38:55;;;;;;;4.70;4.28;;;26.90;73.50;;;;;;6161337;28;20094;-80
2021/08/20 15:41:56;;;;;;;5.20;4.40;;;26.80;75.20;;;;;;6161284;28;20030;-79
2021/08/20 15:44:57;;;;;;;4.93;4.43;;;26.90;74.10;;;;;;6161117;28;20318;-79
2021/08/20 15:47:57;;;;;;;10.80;4.20;;;26.80;74.20;;;;;;6161202;28;20085;-78
2021/08/20 15:50:58;;;;;;;6.20;4.30;;;26.70;75.30;;;;;;6161176;28;20409;-78
2021/08/20 15:53:59;;;;;;;6.70;4.40;;;26.70;75.40;;;;;;6160778;28;20034;-80
2021/08/20 15:57:00;;;;;;;5.28;4.20;;;26.60;76.20;;;;;;6178280;28;20019;-81